createdAt,value
2023-09-10T00:00:30.867Z,18.58
2023-09-10T00:02:57.981Z,15.63
2023-09-10T00:05:25.214Z,18.70
2023-09-10T00:07:54.694Z,16.90
2023-09-10T00:10:21.736Z,16.40
2023-09-10T00:12:48.843Z,17.77
2023-09-10T00:15:16.018Z,17.98
2023-09-10T00:17:43.058Z,17.95
2023-09-10T00:20:11.693Z,18.42
2023-09-10T00:22:41.365Z,17.17
2023-09-10T00:25:08.526Z,19.23
2023-09-10T00:27:35.567Z,19.33
2023-09-10T00:30:03.008Z,16.40
2023-09-10T00:32:30.264Z,18.52
2023-09-10T00:34:57.340Z,22.15
2023-09-10T00:37:24.811Z,21.70
2023-09-10T00:39:51.932Z,20.88
2023-09-10T00:42:19.086Z,20.60
2023-09-10T00:44:46.369Z,18.05
2023-09-10T00:47:14.426Z,23.33
2023-09-10T00:49:42.362Z,24.48
2023-09-10T00:52:09.529Z,27.48
2023-09-10T00:54:37.458Z,23.55
2023-09-10T00:57:05.596Z,25.02
2023-09-10T00:59:32.838Z,24.42
2023-09-10T01:02:00.212Z,25.35
2023-09-10T01:04:27.515Z,25.77
2023-09-10T01:06:54.925Z,26.13
2023-09-10T01:09:27.289Z,27.77
2023-09-10T01:12:37.120Z,28.00
2023-09-10T01:15:31.376Z,29.52
2023-09-10T01:18:21.775Z,29.10
2023-09-10T01:21:07.572Z,28.90
2023-09-10T01:23:54.134Z,33.63
2023-09-10T01:26:21.189Z,30.27
2023-09-10T01:28:48.283Z,26.75
2023-09-10T01:31:15.632Z,26.58
2023-09-10T01:33:53.734Z,27.17
2023-09-10T01:36:40.012Z,30.05
2023-09-10T01:39:13.792Z,32.28
2023-09-10T01:41:44.911Z,31.73
2023-09-10T01:44:15.068Z,28.05
2023-09-10T01:46:43.964Z,27.10
2023-09-10T01:49:11.405Z,27.55
2023-09-10T01:51:38.560Z,31.65
2023-09-10T01:54:05.722Z,28.60
2023-09-10T01:56:32.791Z,32.97
2023-09-10T01:58:59.822Z,33.80
2023-09-10T02:01:26.975Z,34.13
2023-09-10T02:03:54.180Z,36.22
2023-09-10T02:06:21.325Z,33.92
2023-09-10T02:08:48.351Z,40.42
2023-09-10T02:11:15.546Z,33.65
2023-09-10T02:13:42.669Z,32.70
2023-09-10T02:16:10.094Z,33.60
2023-09-10T02:18:37.465Z,32.92
2023-09-10T02:21:12.880Z,35.00
2023-09-10T02:23:44.778Z,30.88
2023-09-10T02:26:12.120Z,27.77
2023-09-10T02:28:39.509Z,33.10
2023-09-10T02:31:09.855Z,33.38
2023-09-10T02:33:36.957Z,31.83
2023-09-10T02:36:04.729Z,32.83
2023-09-10T02:38:33.175Z,29.73
2023-09-10T02:41:01.008Z,35.33
2023-09-10T02:43:28.387Z,38.08
2023-09-10T02:45:55.730Z,35.92
2023-09-10T02:48:23.644Z,36.78
2023-09-10T02:50:50.730Z,34.50
2023-09-10T02:53:17.787Z,36.83
2023-09-10T02:55:44.897Z,32.60
2023-09-10T02:58:11.972Z,35.55
2023-09-10T03:00:40.108Z,36.67
2023-09-10T03:03:07.193Z,36.10
2023-09-10T03:05:35.645Z,35.70
2023-09-10T03:08:03.038Z,36.53
2023-09-10T03:10:30.140Z,39.00
2023-09-10T03:12:57.420Z,36.75
2023-09-10T03:15:25.770Z,37.78
2023-09-10T03:17:52.922Z,35.13
2023-09-10T03:20:20.129Z,37.10
2023-09-10T03:22:47.384Z,39.80
2023-09-10T03:25:14.592Z,40.20
2023-09-10T03:27:41.827Z,37.03
2023-09-10T03:30:09.502Z,40.05
2023-09-10T03:32:36.730Z,29.90
2023-09-10T03:35:05.672Z,34.38
2023-09-10T03:37:33.031Z,30.88
2023-09-10T03:40:00.047Z,36.30
2023-09-10T03:42:27.089Z,39.10
2023-09-10T03:44:54.324Z,39.05
2023-09-10T03:47:21.438Z,35.15
2023-09-10T03:49:48.598Z,39.13
2023-09-10T03:52:21.443Z,39.33
2023-09-10T03:54:49.339Z,33.63
2023-09-10T03:57:16.453Z,32.90
2023-09-10T03:59:43.868Z,35.45
2023-09-10T04:02:14.348Z,35.00
2023-09-10T04:04:42.870Z,35.42
2023-09-10T04:07:10.377Z,37.20
2023-09-10T04:09:37.392Z,35.58
2023-09-10T04:12:04.748Z,33.35
2023-09-10T04:14:32.165Z,39.72
2023-09-10T04:16:59.285Z,38.65
2023-09-10T04:19:26.362Z,38.92
2023-09-10T04:21:53.542Z,35.38
2023-09-10T04:24:20.671Z,40.00
2023-09-10T04:26:48.787Z,36.30
2023-09-10T04:29:16.082Z,42.38
2023-09-10T04:31:44.522Z,42.22
2023-09-10T04:34:12.826Z,44.03
2023-09-10T04:36:40.709Z,39.78
2023-09-10T04:39:10.598Z,45.28
2023-09-10T04:41:41.861Z,42.88
2023-09-10T04:44:09.619Z,40.13
2023-09-10T04:46:37.481Z,45.03
2023-09-10T04:49:04.904Z,46.15
2023-09-10T04:51:32.023Z,47.15
2023-09-10T04:54:00.241Z,47.10
2023-09-10T04:56:27.579Z,47.47
2023-09-10T04:58:54.741Z,48.28
2023-09-10T05:01:22.753Z,50.42
2023-09-10T05:03:50.024Z,51.15
2023-09-10T05:06:20.766Z,49.63
2023-09-10T05:08:47.902Z,49.88
2023-09-10T05:11:15.957Z,53.25
2023-09-10T05:13:43.187Z,52.30
2023-09-10T05:16:10.470Z,45.38
2023-09-10T05:18:40.987Z,43.25
2023-09-10T05:21:08.895Z,44.35
2023-09-10T05:23:36.069Z,43.22
2023-09-10T05:26:04.470Z,48.13
2023-09-10T05:28:32.537Z,47.45
2023-09-10T05:31:10.098Z,51.88
2023-09-10T05:33:39.719Z,46.40
2023-09-10T05:36:08.303Z,43.60
2023-09-10T05:38:35.585Z,44.40
2023-09-10T05:41:05.337Z,48.13
2023-09-10T05:43:32.830Z,50.20
2023-09-10T05:46:00.909Z,47.92
2023-09-10T05:48:28.375Z,43.53
2023-09-10T05:50:59.929Z,48.90
2023-09-10T05:53:29.809Z,47.33
2023-09-10T05:55:57.029Z,51.00
2023-09-10T05:58:25.598Z,50.95
2023-09-10T06:00:56.429Z,51.17
2023-09-10T06:03:25.389Z,46.60
2023-09-10T06:05:52.779Z,50.05
2023-09-10T06:08:20.113Z,45.88
2023-09-10T06:10:47.349Z,48.13
2023-09-10T06:13:14.480Z,46.38
2023-09-10T06:15:42.449Z,46.47
2023-09-10T06:18:09.955Z,47.20
2023-09-10T06:20:37.109Z,48.72
2023-09-10T06:23:04.686Z,50.60
2023-09-10T06:25:33.063Z,46.30
2023-09-10T06:28:00.318Z,45.83
2023-09-10T06:30:28.261Z,48.75
2023-09-10T06:32:55.478Z,41.92
2023-09-10T06:35:22.736Z,44.17
2023-09-10T06:37:50.070Z,46.30
2023-09-10T06:40:17.725Z,42.17
2023-09-10T06:42:46.776Z,39.67
2023-09-10T06:45:25.118Z,39.40
2023-09-10T06:47:52.164Z,40.28
2023-09-10T06:50:19.403Z,41.10
2023-09-10T06:52:46.531Z,40.58
2023-09-10T06:55:15.252Z,40.80
2023-09-10T06:57:44.720Z,43.05
2023-09-10T07:00:12.503Z,42.63
2023-09-10T07:02:39.623Z,37.65
2023-09-10T07:05:07.098Z,42.70
2023-09-10T07:07:34.178Z,34.58
2023-09-10T07:10:01.216Z,35.33
2023-09-10T07:12:28.312Z,36.13
2023-09-10T07:14:55.317Z,37.78
2023-09-10T07:17:22.455Z,39.10
2023-09-10T07:19:50.017Z,35.15
2023-09-10T07:22:17.124Z,38.45
2023-09-10T07:24:44.173Z,39.88
2023-09-10T07:27:11.360Z,32.63
2023-09-10T07:29:38.368Z,33.85
2023-09-10T07:32:05.846Z,33.75
2023-09-10T07:34:32.939Z,34.95
2023-09-10T07:36:59.974Z,34.50
2023-09-10T07:39:30.533Z,30.10
2023-09-10T07:41:57.964Z,31.27
2023-09-10T07:44:25.141Z,31.05
2023-09-10T07:46:53.805Z,29.25
2023-09-10T07:49:20.961Z,30.90
2023-09-10T07:51:48.010Z,32.55
2023-09-10T07:54:15.082Z,30.23
2023-09-10T07:56:42.104Z,28.38
2023-09-10T07:59:12.768Z,29.25
2023-09-10T08:01:40.313Z,30.35
2023-09-10T08:04:08.124Z,29.25
2023-09-10T08:06:35.291Z,27.00
2023-09-10T08:09:02.389Z,27.02
2023-09-10T08:11:29.622Z,27.42
2023-09-10T08:13:56.710Z,25.25
2023-09-10T08:16:23.968Z,25.38
2023-09-10T08:18:51.295Z,23.08
2023-09-10T08:21:18.445Z,24.42
2023-09-10T08:23:46.134Z,27.27
2023-09-10T08:26:13.456Z,26.85
2023-09-10T08:28:41.180Z,24.50
2023-09-10T08:31:08.485Z,24.95
2023-09-10T08:33:35.543Z,22.38
2023-09-10T08:36:02.690Z,21.33
2023-09-10T08:38:29.898Z,27.23
2023-09-10T08:40:59.804Z,20.83
2023-09-10T08:43:42.512Z,19.38
2023-09-10T08:46:11.861Z,19.92
2023-09-10T08:48:44.933Z,21.73
2023-09-10T08:51:14.153Z,17.77
2023-09-10T08:53:44.290Z,18.95
2023-09-10T08:56:12.824Z,18.55
2023-09-10T08:58:43.704Z,23.42
2023-09-10T09:01:13.312Z,20.52
2023-09-10T09:03:41.003Z,19.33
2023-09-10T09:06:09.410Z,17.10
2023-09-10T09:08:37.855Z,19.02
2023-09-10T09:11:10.203Z,17.60
2023-09-10T09:13:45.509Z,17.98
2023-09-10T09:16:13.753Z,18.52
2023-09-10T09:18:42.260Z,15.10
2023-09-10T09:21:18.157Z,16.58
2023-09-10T09:23:52.170Z,16.33
2023-09-10T09:26:20.035Z,18.92
2023-09-10T09:28:47.709Z,18.35
2023-09-10T09:31:15.202Z,18.05
2023-09-10T09:33:45.182Z,17.48
2023-09-10T09:36:12.798Z,20.90
2023-09-10T09:38:45.098Z,14.98
2023-09-10T09:41:15.353Z,14.07
2023-09-10T09:43:42.632Z,15.18
2023-09-10T09:46:10.836Z,16.60
2023-09-10T09:48:40.100Z,13.45
2023-09-10T09:51:07.605Z,11.82
2023-09-10T09:53:34.976Z,15.90
2023-09-10T09:56:06.009Z,14.60
2023-09-10T09:58:34.353Z,11.80
2023-09-10T10:01:02.256Z,14.60
2023-09-10T10:03:33.477Z,13.15
2023-09-10T10:06:02.687Z,18.17
2023-09-10T10:08:34.039Z,21.75
2023-09-10T10:11:01.334Z,16.48
2023-09-10T10:13:28.755Z,13.18
2023-09-10T10:15:57.561Z,12.77
2023-09-10T10:18:30.893Z,10.10
2023-09-10T10:21:04.619Z,13.45
2023-09-10T10:23:40.600Z,13.15
2023-09-10T10:26:12.028Z,14.30
2023-09-10T10:28:40.436Z,13.18
2023-09-10T10:31:18.984Z,11.23
2023-09-10T10:33:56.223Z,10.15
2023-09-10T10:36:56.736Z,12.43
2023-09-10T10:39:38.262Z,11.43
2023-09-10T10:42:10.852Z,7.95
2023-09-10T10:44:39.404Z,13.90
2023-09-10T10:47:20.426Z,12.98
2023-09-10T10:49:55.978Z,11.38
2023-09-10T10:52:32.860Z,14.07
2023-09-10T10:55:00.398Z,12.32
2023-09-10T10:57:30.802Z,12.48
2023-09-10T10:59:58.644Z,11.98
2023-09-10T11:02:26.017Z,9.32
2023-09-10T11:05:04.177Z,10.43
2023-09-10T11:07:33.511Z,12.00
2023-09-10T11:10:30.555Z,15.20
2023-09-10T11:13:09.052Z,12.18
2023-09-10T11:15:36.823Z,10.15
2023-09-10T11:18:40.880Z,10.18
2023-09-10T11:21:09.858Z,10.27
2023-09-10T11:23:41.140Z,9.85
2023-09-10T11:26:14.727Z,16.67
2023-09-10T11:28:51.960Z,11.38
2023-09-10T11:31:34.443Z,11.57
2023-09-10T11:34:20.573Z,13.23
2023-09-10T11:36:58.024Z,9.50
2023-09-10T11:39:26.195Z,9.48
2023-09-10T11:41:55.871Z,11.55
2023-09-10T11:44:23.270Z,8.05
2023-09-10T11:46:54.927Z,11.25
2023-09-10T11:49:24.981Z,9.75
2023-09-10T11:51:56.889Z,10.00
2023-09-10T11:54:24.574Z,10.20
2023-09-10T11:56:56.690Z,8.98
2023-09-10T11:59:31.922Z,10.77
2023-09-10T12:02:00.631Z,13.10
2023-09-10T12:04:34.159Z,7.38
2023-09-10T12:07:02.776Z,10.02
2023-09-10T12:09:32.211Z,10.18
2023-09-10T12:12:15.212Z,11.13
2023-09-10T12:14:43.186Z,11.45
2023-09-10T12:17:11.404Z,9.38
2023-09-10T12:19:39.709Z,11.02
2023-09-10T12:22:12.036Z,12.15
2023-09-10T12:24:42.050Z,10.85
2023-09-10T12:27:10.675Z,9.70
2023-09-10T12:29:38.606Z,13.40
2023-09-10T12:32:06.514Z,11.32
2023-09-10T12:34:34.504Z,9.18
2023-09-10T12:37:01.604Z,14.77
2023-09-10T12:39:28.989Z,16.08
2023-09-10T12:42:04.957Z,11.35
2023-09-10T12:44:34.974Z,8.23
2023-09-10T12:47:02.489Z,14.07
2023-09-10T12:49:30.354Z,8.00
2023-09-10T12:51:57.364Z,11.57
2023-09-10T12:54:24.996Z,9.30
2023-09-10T12:56:53.010Z,8.95
2023-09-10T12:59:22.124Z,9.55
2023-09-10T13:01:50.952Z,12.25
2023-09-10T13:04:18.520Z,9.82
2023-09-10T13:06:49.199Z,11.07
2023-09-10T13:09:17.632Z,10.77
2023-09-10T13:11:44.781Z,9.93
2023-09-10T13:14:11.875Z,8.43
2023-09-10T13:16:38.905Z,12.05
2023-09-10T13:19:06.215Z,8.60
2023-09-10T13:21:34.803Z,10.82
2023-09-10T13:24:02.064Z,13.85
2023-09-10T13:26:29.369Z,11.65
2023-09-10T13:28:56.445Z,9.63
2023-09-10T13:31:23.545Z,9.57
2023-09-10T13:33:51.663Z,9.43
2023-09-10T13:36:18.738Z,6.47
2023-09-10T13:38:45.869Z,5.90
2023-09-10T13:41:13.370Z,6.95
2023-09-10T13:43:40.970Z,8.48
2023-09-10T13:46:08.724Z,4.93
2023-09-10T13:48:35.967Z,7.30
2023-09-10T13:51:03.343Z,6.03
2023-09-10T13:53:30.803Z,8.95
2023-09-10T13:56:00.742Z,4.22
2023-09-10T13:58:27.876Z,10.40
2023-09-10T14:00:54.903Z,11.07
2023-09-10T14:03:27.553Z,9.38
2023-09-10T14:05:55.735Z,8.40
2023-09-10T14:08:22.899Z,9.20
2023-09-10T14:10:50.058Z,8.50
2023-09-10T14:13:17.193Z,10.18
2023-09-10T14:15:44.426Z,8.20
2023-09-10T14:18:12.344Z,15.15
2023-09-10T14:20:39.561Z,7.60
2023-09-10T14:23:06.923Z,11.48
2023-09-10T14:25:34.533Z,11.85
2023-09-10T14:28:01.586Z,7.25
2023-09-10T14:30:28.858Z,8.90
2023-09-10T14:32:56.075Z,6.07
2023-09-10T14:35:23.461Z,8.32
2023-09-10T14:37:50.959Z,9.57
2023-09-10T14:40:18.763Z,11.70
2023-09-10T14:42:46.035Z,8.82
2023-09-10T14:45:13.350Z,10.00
2023-09-10T14:47:40.759Z,8.02
2023-09-10T14:50:13.970Z,5.63
2023-09-10T14:52:45.480Z,6.35
2023-09-10T14:55:13.420Z,8.68
2023-09-10T14:57:40.953Z,6.65
2023-09-10T15:00:08.735Z,9.65
2023-09-10T15:02:38.261Z,13.35
2023-09-10T15:05:09.303Z,6.72
2023-09-10T15:07:36.532Z,6.65
2023-09-10T15:10:04.308Z,6.90
2023-09-10T15:12:31.554Z,7.82
2023-09-10T15:14:58.637Z,9.68
2023-09-10T15:17:25.693Z,6.38
2023-09-10T15:19:52.834Z,9.38
2023-09-10T15:22:19.852Z,7.55
2023-09-10T15:24:47.046Z,10.95
2023-09-10T15:27:14.076Z,8.60
2023-09-10T15:29:41.175Z,11.00
2023-09-10T15:32:08.831Z,6.60
2023-09-10T15:34:35.863Z,9.43
2023-09-10T15:37:02.966Z,7.25
2023-09-10T15:39:30.369Z,10.10
2023-09-10T15:41:57.552Z,8.25
2023-09-10T15:44:24.931Z,8.35
2023-09-10T15:46:52.116Z,9.93
2023-09-10T15:49:19.812Z,10.15
2023-09-10T15:51:47.008Z,10.73
2023-09-10T15:54:14.345Z,9.75
2023-09-10T15:56:41.500Z,8.13
2023-09-10T15:59:09.947Z,9.18
2023-09-10T16:01:37.383Z,9.35
2023-09-10T16:04:05.025Z,9.80
2023-09-10T16:06:34.878Z,6.53
2023-09-10T16:09:04.799Z,9.82
2023-09-10T16:11:33.683Z,10.52
2023-09-10T16:14:01.002Z,5.28
2023-09-10T16:16:28.720Z,7.97
2023-09-10T16:18:59.593Z,9.00
2023-09-10T16:21:28.246Z,10.88
2023-09-10T16:23:55.400Z,7.78
2023-09-10T16:26:22.846Z,8.43
2023-09-10T16:28:49.867Z,7.35
2023-09-10T16:31:17.248Z,6.30
2023-09-10T16:33:44.366Z,9.48
2023-09-10T16:36:11.410Z,8.15
2023-09-10T16:38:38.472Z,8.70
2023-09-10T16:41:05.579Z,9.57
2023-09-10T16:43:32.682Z,8.13
2023-09-10T16:45:59.810Z,7.18
2023-09-10T16:48:26.980Z,13.23
2023-09-10T16:50:54.232Z,12.38
2023-09-10T16:53:21.293Z,6.53
2023-09-10T16:55:54.076Z,11.05
2023-09-10T16:58:23.492Z,8.25
2023-09-10T17:00:51.089Z,7.95
2023-09-10T17:03:18.324Z,7.80
2023-09-10T17:05:46.043Z,13.93
2023-09-10T17:08:13.259Z,6.90
2023-09-10T17:10:40.390Z,10.10
2023-09-10T17:13:07.654Z,7.28
2023-09-10T17:15:35.504Z,9.00
2023-09-10T17:18:03.375Z,7.32
2023-09-10T17:20:33.609Z,12.95
2023-09-10T17:23:02.005Z,9.13
2023-09-10T17:25:29.288Z,11.65
2023-09-10T17:27:58.236Z,8.98
2023-09-10T17:30:25.249Z,13.02
2023-09-10T17:32:59.655Z,9.68
2023-09-10T17:37:55.624Z,9.45
2023-09-10T17:40:26.974Z,11.90
2023-09-10T17:42:53.984Z,10.07
2023-09-10T17:45:22.042Z,10.80
2023-09-10T17:47:49.156Z,11.57
2023-09-10T17:50:16.328Z,13.82
2023-09-10T17:52:43.490Z,10.20
2023-09-10T17:55:10.571Z,10.68
2023-09-10T17:57:37.602Z,15.80
2023-09-10T18:00:07.608Z,9.50
2023-09-10T18:02:34.870Z,9.65
2023-09-10T18:05:04.327Z,11.88
2023-09-10T18:07:33.362Z,11.98
2023-09-10T18:10:00.985Z,9.48
2023-09-10T18:12:28.224Z,11.77
2023-09-10T18:14:55.379Z,10.95
2023-09-10T18:17:22.593Z,11.02
2023-09-10T18:19:49.729Z,10.30
2023-09-10T18:22:16.954Z,11.23
2023-09-10T18:24:45.035Z,13.50
2023-09-10T18:27:12.180Z,13.23
2023-09-10T18:29:40.190Z,15.45
2023-09-10T18:32:07.943Z,13.40
2023-09-10T18:34:35.493Z,12.18
2023-09-10T18:37:02.602Z,14.05
2023-09-10T18:39:29.807Z,12.55
2023-09-10T18:41:58.367Z,11.85
2023-09-10T18:44:25.461Z,10.45
2023-09-10T18:46:57.371Z,12.15
2023-09-10T18:49:24.662Z,12.95
2023-09-10T18:52:15.568Z,13.20
2023-09-10T18:54:44.043Z,10.98
2023-09-10T18:57:14.849Z,11.93
2023-09-10T18:59:43.018Z,9.57
2023-09-10T19:02:10.535Z,11.05
2023-09-10T19:04:38.156Z,13.05
2023-09-10T19:07:08.163Z,13.38
2023-09-10T19:09:35.676Z,13.73
2023-09-10T19:12:03.093Z,10.07
2023-09-10T19:14:31.674Z,10.85
2023-09-10T19:16:58.809Z,9.50
2023-09-10T19:19:25.920Z,17.67
2023-09-10T19:21:52.979Z,14.60
2023-09-10T19:24:20.065Z,13.25
2023-09-10T19:26:47.166Z,14.90
2023-09-10T19:29:14.230Z,14.95
2023-09-10T19:31:42.276Z,12.75
2023-09-10T19:34:09.846Z,13.88
2023-09-10T19:36:37.034Z,13.00
2023-09-10T19:39:10.861Z,13.65
2023-09-10T19:41:39.402Z,8.57
2023-09-10T19:44:09.063Z,11.52
2023-09-10T19:46:37.485Z,13.38
2023-09-10T19:49:04.858Z,9.55
2023-09-10T19:51:32.038Z,13.80
2023-09-10T19:53:59.154Z,12.30
2023-09-10T19:56:28.391Z,14.90
2023-09-10T19:59:12.907Z,15.23
2023-09-10T20:01:45.134Z,19.70
2023-09-10T20:04:13.239Z,14.93
2023-09-10T20:06:42.688Z,11.82
2023-09-10T20:09:09.897Z,11.23
2023-09-10T20:11:37.867Z,14.93
2023-09-10T20:14:07.382Z,11.68
2023-09-10T20:16:35.284Z,14.00
2023-09-10T20:19:02.364Z,12.18
2023-09-10T20:21:29.496Z,14.38
2023-09-10T20:23:56.596Z,15.02
2023-09-10T20:26:25.045Z,13.05
2023-09-10T20:28:52.190Z,12.90
2023-09-10T20:31:19.326Z,16.35
2023-09-10T20:33:47.170Z,16.05
2023-09-10T20:36:14.448Z,18.83
2023-09-10T20:38:41.976Z,16.20
2023-09-10T20:41:17.314Z,13.07
2023-09-10T20:43:44.963Z,16.33
2023-09-10T20:46:13.256Z,17.05
2023-09-10T20:48:41.281Z,11.45
2023-09-10T20:51:09.788Z,14.65
2023-09-10T20:53:38.544Z,12.77
2023-09-10T20:56:05.735Z,13.32
2023-09-10T20:58:32.869Z,13.48
2023-09-10T21:01:00.356Z,14.88
2023-09-10T21:03:30.350Z,12.48
2023-09-10T21:05:59.419Z,13.40
2023-09-10T21:08:27.488Z,14.15
2023-09-10T21:10:54.831Z,15.30
2023-09-10T21:13:21.891Z,16.77
2023-09-10T21:15:49.278Z,12.13
2023-09-10T21:18:20.098Z,13.50
2023-09-10T21:20:47.225Z,15.23
2023-09-10T21:23:14.387Z,17.40
2023-09-10T21:25:42.759Z,12.80
2023-09-10T21:28:10.336Z,12.98
2023-09-10T21:30:37.437Z,17.70
2023-09-10T21:33:06.333Z,16.25
2023-09-10T21:35:34.175Z,14.13
2023-09-10T21:38:01.307Z,17.25
2023-09-10T21:40:28.347Z,11.80
2023-09-10T21:42:55.381Z,16.05
2023-09-10T21:45:22.446Z,9.98
2023-09-10T21:47:49.570Z,15.50
2023-09-10T21:50:16.662Z,18.42
2023-09-10T21:52:43.689Z,14.68
2023-09-10T21:55:10.724Z,15.43
2023-09-10T21:57:37.763Z,14.40
2023-09-10T22:00:05.823Z,15.27
2023-09-10T22:02:33.076Z,15.27
2023-09-10T22:05:00.411Z,15.57
2023-09-10T22:07:27.486Z,15.77
2023-09-10T22:09:55.375Z,14.38
2023-09-10T22:12:22.659Z,14.57
2023-09-10T22:14:50.180Z,16.92
2023-09-10T22:17:17.273Z,14.30
2023-09-10T22:19:44.350Z,14.88
2023-09-10T22:22:11.815Z,13.52
2023-09-10T22:24:38.948Z,17.40
2023-09-10T22:27:06.050Z,13.70
2023-09-10T22:29:33.144Z,19.35
2023-09-10T22:32:00.239Z,16.33
2023-09-10T22:34:27.263Z,17.25
2023-09-10T22:36:55.430Z,13.07
2023-09-10T22:39:22.511Z,12.60
2023-09-10T22:41:49.565Z,14.55
2023-09-10T22:44:16.730Z,20.45
2023-09-10T22:46:43.800Z,19.92
2023-09-10T22:49:10.815Z,15.95
2023-09-10T22:51:38.711Z,17.92
2023-09-10T22:54:05.841Z,18.25
2023-09-10T22:56:33.125Z,20.33
2023-09-10T22:59:00.345Z,23.92
2023-09-10T23:01:27.925Z,16.48
2023-09-10T23:03:55.332Z,16.10
2023-09-10T23:06:22.645Z,17.08
2023-09-10T23:08:49.732Z,20.48
2023-09-10T23:11:16.971Z,21.55
2023-09-10T23:13:44.150Z,20.33
2023-09-10T23:16:11.331Z,15.98
2023-09-10T23:18:38.589Z,18.58
2023-09-10T23:21:05.859Z,19.08
2023-09-10T23:23:32.938Z,15.02
2023-09-10T23:26:02.411Z,20.30
2023-09-10T23:28:30.481Z,19.92
2023-09-10T23:30:57.585Z,21.52
2023-09-10T23:33:24.662Z,15.95
2023-09-10T23:35:52.297Z,20.98
2023-09-10T23:38:19.433Z,18.52
2023-09-10T23:40:57.813Z,21.88
2023-09-10T23:43:26.024Z,17.10
2023-09-10T23:45:53.542Z,16.02
2023-09-10T23:48:20.821Z,16.23
2023-09-10T23:50:48.062Z,17.67
2023-09-10T23:53:15.131Z,17.45
2023-09-10T23:55:42.241Z,23.80
2023-09-10T23:58:09.289Z,19.35
